Kramer, North Dakota
Current Conditions -  °F | °C
As of 7:58 PM on Friday 21 Nov 2014 (Local Time) from KMIB Reporting Station
Clear Clear  
Wind Chill: 27°   Ceiling: Unl
Heat Index: 35°   Visibility: 10mi
Dew Point: 30°   Wind: 12mph
Humidity: 82%   Direction: 260°W
Pressure: 29.6"   Gusts: NA
Location:  48.69°N, 100.71°W
Report Text: KMIB 220158Z AUTO 26010KT 10SM CLR 02/M01 A2960 RMK AO2 SLP046 T00181009
Loading
Personal Weather Stations






























Interactive Weather Map New forecast layout! Learn more

10-Day Weather Forecast

Advertisements
Track Severe Weather on mobile